createdAt,value
2023-08-14T00:01:28.659Z,19.74
2023-08-14T00:11:50.125Z,19.64
2023-08-14T00:22:13.103Z,19.51
2023-08-14T00:32:34.700Z,19.36
2023-08-14T00:42:56.119Z,19.27
2023-08-14T00:53:18.627Z,19.10
2023-08-14T01:03:40.061Z,19.01
2023-08-14T01:14:31.068Z,18.95
2023-08-14T01:24:52.455Z,18.89
2023-08-14T01:35:14.577Z,18.76
2023-08-14T01:45:36.691Z,18.69
2023-08-14T01:55:58.153Z,18.63
2023-08-14T02:06:19.586Z,18.53
2023-08-14T02:16:41.056Z,18.45
2023-08-14T02:27:02.470Z,18.38
2023-08-14T02:37:23.929Z,18.33
2023-08-14T02:47:45.517Z,18.22
2023-08-14T02:58:06.960Z,18.13
2023-08-14T03:08:28.578Z,18.03
2023-08-14T03:18:50.033Z,17.99
2023-08-14T03:29:11.544Z,17.88
2023-08-14T03:39:32.979Z,17.81
2023-08-14T03:49:54.484Z,17.76
2023-08-14T04:00:16.049Z,17.71
2023-08-14T04:10:38.357Z,17.72
2023-08-14T04:21:00.100Z,17.68
2023-08-14T04:31:21.562Z,17.65
2023-08-14T04:41:43.113Z,17.59
2023-08-14T04:52:04.698Z,17.61
2023-08-14T05:02:26.213Z,17.69
2023-08-14T05:12:48.246Z,17.82
2023-08-14T05:23:09.669Z,17.91
2023-08-14T05:33:31.104Z,18.08
2023-08-14T05:43:52.582Z,18.30
2023-08-14T05:54:14.070Z,18.47
2023-08-14T06:04:37.955Z,18.71
2023-08-14T06:14:59.653Z,18.87
2023-08-14T06:25:21.956Z,19.03
2023-08-14T06:35:43.466Z,19.26
2023-08-14T06:46:04.965Z,19.55
2023-08-14T06:56:26.452Z,19.79
2023-08-14T07:06:47.867Z,19.84
2023-08-14T07:17:09.271Z,19.91
2023-08-14T07:27:30.704Z,20.09
2023-08-14T07:37:52.148Z,20.34
2023-08-14T07:48:13.664Z,20.63
2023-08-14T07:58:35.251Z,20.83
2023-08-14T08:08:56.717Z,21.04
2023-08-14T08:19:18.190Z,21.19
2023-08-14T08:29:39.643Z,21.27
2023-08-14T08:40:01.037Z,21.35
2023-08-14T08:50:22.495Z,21.52
2023-08-14T09:00:44.359Z,21.51
2023-08-14T09:11:05.771Z,21.64
2023-08-14T09:21:28.220Z,21.77
2023-08-14T09:31:49.861Z,21.90
2023-08-14T09:42:12.764Z,21.92
2023-08-14T09:52:34.438Z,22.08
2023-08-14T10:02:56.957Z,22.21
2023-08-14T10:13:19.577Z,22.59
2023-08-14T10:23:41.741Z,22.97
2023-08-14T10:34:03.537Z,23.20
2023-08-14T10:44:31.988Z,23.45
2023-08-14T10:54:53.852Z,23.70
2023-08-14T11:05:17.808Z,24.10
2023-08-14T11:15:40.337Z,24.37
2023-08-14T11:26:01.788Z,24.78
2023-08-14T11:36:24.948Z,24.62
2023-08-14T11:46:46.958Z,24.72
2023-08-14T11:57:09.433Z,25.08
2023-08-14T12:07:30.867Z,25.51
2023-08-14T12:17:52.649Z,25.52
2023-08-14T12:28:14.595Z,25.62
2023-08-14T12:38:36.004Z,25.45
2023-08-14T12:48:58.013Z,25.44
2023-08-14T12:59:24.325Z,25.24
2023-08-14T13:09:46.025Z,25.55
2023-08-14T13:20:08.445Z,25.77
2023-08-14T13:30:29.913Z,25.49
2023-08-14T13:40:51.347Z,25.51
2023-08-14T13:51:12.930Z,25.61
2023-08-14T14:01:34.628Z,25.83
2023-08-14T14:11:56.172Z,25.88
2023-08-14T14:22:17.611Z,25.91
2023-08-14T14:32:39.240Z,25.95
2023-08-14T14:43:01.333Z,25.96
2023-08-14T14:53:22.774Z,25.69
2023-08-14T15:03:44.404Z,26.05
2023-08-14T15:14:06.014Z,26.07
2023-08-14T15:24:27.456Z,26.12
2023-08-14T15:34:49.084Z,26.31
2023-08-14T15:45:12.148Z,26.17
2023-08-14T15:55:38.314Z,26.37
2023-08-14T16:05:59.774Z,26.42
2023-08-14T16:16:21.228Z,26.50
2023-08-14T16:26:44.142Z,26.50
2023-08-14T16:37:05.737Z,26.49
2023-08-14T16:47:29.078Z,26.48
2023-08-14T16:57:50.607Z,26.65
2023-08-14T17:08:12.047Z,26.57
2023-08-14T17:18:33.522Z,26.31
2023-08-14T17:28:54.981Z,26.16
2023-08-14T17:39:16.509Z,25.91
2023-08-14T17:49:38.152Z,25.74
2023-08-14T17:59:59.645Z,25.53
2023-08-14T18:10:21.107Z,25.34
2023-08-14T18:20:42.558Z,25.19
2023-08-14T18:31:04.721Z,25.03
2023-08-14T18:41:26.216Z,24.91
2023-08-14T18:51:47.802Z,24.70
2023-08-14T19:02:09.657Z,24.47
2023-08-14T19:12:31.105Z,24.28
2023-08-14T19:22:52.551Z,24.09
2023-08-14T19:33:14.093Z,23.89
2023-08-14T19:43:35.562Z,23.71
2023-08-14T19:53:57.054Z,23.60
2023-08-14T20:04:18.779Z,23.48
2023-08-14T20:14:41.324Z,23.35
2023-08-14T20:25:02.805Z,23.24
2023-08-14T20:35:24.273Z,23.11
2023-08-14T20:45:45.724Z,22.98
2023-08-14T20:56:07.322Z,22.87
2023-08-14T21:06:28.774Z,22.78
2023-08-14T21:16:50.223Z,22.69
2023-08-14T21:27:12.407Z,22.65
2023-08-14T21:37:34.108Z,22.60
2023-08-14T21:47:55.646Z,22.52
2023-08-14T21:58:17.517Z,22.38
2023-08-14T22:08:39.025Z,22.33
2023-08-14T22:19:00.446Z,22.33
2023-08-14T22:29:21.886Z,22.29
2023-08-14T22:39:43.318Z,22.21
2023-08-14T22:50:04.969Z,22.11
2023-08-14T23:00:26.986Z,21.98
2023-08-14T23:10:48.456Z,21.87
2023-08-14T23:21:09.866Z,21.77
2023-08-14T23:31:31.321Z,21.67
2023-08-14T23:41:52.751Z,21.65
2023-08-14T23:52:14.211Z,21.70
